Tobruk, Libya
Current Conditions -  °F | °C
As of 7:00 AM on Saturday 01 Nov 2014 (Local Time) from HEMM Reporting Station
Broken Clouds Broken Clouds  
Wind Chill: 61°   Ceiling: 2000
Heat Index: 61°   Visibility: 6mi
Dew Point: 57°   Wind: 12mph
Humidity: 88%   Direction: 130°SE
Pressure: 29.94"   Gusts: NA
Location:  32.08°N, 23.98°E
Report Text: HEMM 010400Z 13010KT 9999 BKN020 16/14 Q1014 NOSIG
Loading
Personal Weather Stations






























Interactive Weather Map
Tropical Storm Tracking
New forecast layout! Learn more

10-Day Weather Forecast

Advertisements
Track Severe Weather on mobile